sensor_id;sensor_type;location;lat;lon;timestamp;pressure;altitude;pressure_sealevel;temperature;humidity
36692;BME280;22678;52.052;4.242;2022-10-16T00:01:17;100886.94;;;14.43;76.08
36692;BME280;22678;52.052;4.242;2022-10-16T00:03:44;100898.38;;;14.44;76.09
36692;BME280;22678;52.052;4.242;2022-10-16T00:06:11;100892.25;;;14.43;76.12
36692;BME280;22678;52.052;4.242;2022-10-16T00:08:37;100889.75;;;14.37;75.93
36692;BME280;22678;52.052;4.242;2022-10-16T00:11:11;100895.72;;;14.45;75.64
36692;BME280;22678;52.052;4.242;2022-10-16T00:13:38;100901.94;;;14.44;75.53
36692;BME280;22678;52.052;4.242;2022-10-16T00:16:04;100873.00;;;14.35;75.35
36692;BME280;22678;52.052;4.242;2022-10-16T00:18:30;100888.69;;;14.44;75.47
36692;BME280;22678;52.052;4.242;2022-10-16T00:21:00;100886.06;;;14.43;75.17
36692;BME280;22678;52.052;4.242;2022-10-16T00:23:26;100880.09;;;14.34;75.31
36692;BME280;22678;52.052;4.242;2022-10-16T00:26:00;100852.94;;;14.26;75.39
36692;BME280;22678;52.052;4.242;2022-10-16T00:28:26;100847.75;;;14.22;75.42
36692;BME280;22678;52.052;4.242;2022-10-16T00:30:52;100887.06;;;14.39;75.24
36692;BME280;22678;52.052;4.242;2022-10-16T00:33:17;100873.09;;;14.32;75.48
36692;BME280;22678;52.052;4.242;2022-10-16T00:35:43;100882.75;;;14.34;75.56
36692;BME280;22678;52.052;4.242;2022-10-16T00:38:09;100879.22;;;14.34;75.67
36692;BME280;22678;52.052;4.242;2022-10-16T00:40:34;100876.59;;;14.34;75.46
36692;BME280;22678;52.052;4.242;2022-10-16T00:42:59;100872.28;;;14.30;75.52
36692;BME280;22678;52.052;4.242;2022-10-16T00:45:24;100861.06;;;14.18;75.82
36692;BME280;22678;52.052;4.242;2022-10-16T00:47:51;100864.53;;;14.20;75.84
36692;BME280;22678;52.052;4.242;2022-10-16T00:50:27;100890.72;;;14.33;75.72
36692;BME280;22678;52.052;4.242;2022-10-16T00:52:54;100888.06;;;14.33;75.69
36692;BME280;22678;52.052;4.242;2022-10-16T00:55:20;100883.75;;;14.29;76.12
36692;BME280;22678;52.052;4.242;2022-10-16T00:57:46;100887.28;;;14.28;75.96
36692;BME280;22678;52.052;4.242;2022-10-16T01:00:19;100893.47;;;14.28;75.99
36692;BME280;22678;52.052;4.242;2022-10-16T01:02:54;100880.47;;;14.17;76.19
36692;BME280;22678;52.052;4.242;2022-10-16T01:05:22;100886.56;;;14.21;76.14
36692;BME280;22678;52.052;4.242;2022-10-16T01:08:30;100901.44;;;14.27;76.33
36692;BME280;22678;52.052;4.242;2022-10-16T01:11:15;100887.50;;;14.18;76.57
36692;BME280;22678;52.052;4.242;2022-10-16T01:13:42;100905.91;;;14.23;76.62
36692;BME280;22678;52.052;4.242;2022-10-16T01:18:52;100884.94;;;14.15;77.19
36692;BME280;22678;52.052;4.242;2022-10-16T01:21:26;100880.59;;;14.11;77.34
36692;BME280;22678;52.052;4.242;2022-10-16T01:26:50;100887.66;;;14.12;77.73
36692;BME280;22678;52.052;4.242;2022-10-16T01:29:36;100859.81;;;13.96;77.99
36692;BME280;22678;52.052;4.242;2022-10-16T01:32:28;100885.91;;;14.11;78.32
36692;BME280;22678;52.052;4.242;2022-10-16T01:35:09;100885.91;;;14.11;78.29
36692;BME280;22678;52.052;4.242;2022-10-16T01:37:44;100881.66;;;14.04;78.51
36692;BME280;22678;52.052;4.242;2022-10-16T01:40:13;100866.09;;;13.90;78.61
36692;BME280;22678;52.052;4.242;2022-10-16T01:42:52;100874.81;;;13.94;78.46
36692;BME280;22678;52.052;4.242;2022-10-16T01:45:19;100891.31;;;14.05;78.76
36692;BME280;22678;52.052;4.242;2022-10-16T01:47:46;100881.69;;;14.02;78.97
36692;BME280;22678;52.052;4.242;2022-10-16T01:50:14;100882.56;;;14.03;78.95
36692;BME280;22678;52.052;4.242;2022-10-16T01:52:43;100869.56;;;13.92;79.06
36692;BME280;22678;52.052;4.242;2022-10-16T01:55:13;100882.66;;;13.98;79.14
36692;BME280;22678;52.052;4.242;2022-10-16T01:57:44;100886.97;;;14.02;79.43
36692;BME280;22678;52.052;4.242;2022-10-16T02:00:12;100900.09;;;14.07;79.42
36692;BME280;22678;52.052;4.242;2022-10-16T02:02:40;100889.66;;;14.01;79.35
36692;BME280;22678;52.052;4.242;2022-10-16T02:05:41;100905.38;;;14.07;79.66
36692;BME280;22678;52.052;4.242;2022-10-16T02:08:07;100899.28;;;14.04;79.83
36692;BME280;22678;52.052;4.242;2022-10-16T02:10:34;100894.88;;;14.04;79.84
36692;BME280;22678;52.052;4.242;2022-10-16T02:13:06;100910.72;;;14.04;80.08
36692;BME280;22678;52.052;4.242;2022-10-16T02:15:34;100889.78;;;13.95;80.28
36692;BME280;22678;52.052;4.242;2022-10-16T02:17:59;100897.66;;;13.98;80.49
36692;BME280;22678;52.052;4.242;2022-10-16T02:20:27;100912.56;;;14.02;80.59
36692;BME280;22678;52.052;4.242;2022-10-16T02:22:56;100898.69;;;13.91;80.58
36692;BME280;22678;52.052;4.242;2022-10-16T02:25:30;100895.13;;;13.92;80.50
36692;BME280;22678;52.052;4.242;2022-10-16T02:28:14;100909.13;;;13.97;80.92
36692;BME280;22678;52.052;4.242;2022-10-16T02:30:49;100883.03;;;13.81;80.87
36692;BME280;22678;52.052;4.242;2022-10-16T02:33:17;100898.88;;;13.81;80.98
36692;BME280;22678;52.052;4.242;2022-10-16T02:35:46;100893.72;;;13.75;81.18
36692;BME280;22678;52.052;4.242;2022-10-16T02:38:14;100926.94;;;13.89;81.34
36692;BME280;22678;52.052;4.242;2022-10-16T02:40:40;100921.78;;;13.82;81.41
36692;BME280;22678;52.052;4.242;2022-10-16T02:43:06;100931.31;;;13.88;81.74
36692;BME280;22678;52.052;4.242;2022-10-16T02:45:32;100921.81;;;13.79;81.72
36692;BME280;22678;52.052;4.242;2022-10-16T02:47:58;100908.75;;;13.72;81.60
36692;BME280;22678;52.052;4.242;2022-10-16T02:50:23;100935.84;;;13.83;81.56
36692;BME280;22678;52.052;4.242;2022-10-16T02:52:50;100937.56;;;13.86;81.89
36692;BME280;22678;52.052;4.242;2022-10-16T02:55:15;100932.34;;;13.82;82.28
36692;BME280;22678;52.052;4.242;2022-10-16T02:57:40;100909.66;;;13.72;82.17
36692;BME280;22678;52.052;4.242;2022-10-16T03:00:11;100928.00;;;13.80;82.29
36692;BME280;22678;52.052;4.242;2022-10-16T03:02:37;100914.88;;;13.75;82.52
36692;BME280;22678;52.052;4.242;2022-10-16T03:05:03;100907.00;;;13.72;82.72
36692;BME280;22678;52.052;4.242;2022-10-16T03:07:28;100880.03;;;13.55;82.98
36692;BME280;22678;52.052;4.242;2022-10-16T03:09:54;100928.91;;;13.77;83.14
36692;BME280;22678;52.052;4.242;2022-10-16T03:12:20;100917.63;;;13.71;83.19
36692;BME280;22678;52.052;4.242;2022-10-16T03:14:46;100937.72;;;13.76;83.34
36692;BME280;22678;52.052;4.242;2022-10-16T03:17:11;100923.69;;;13.74;83.44
36692;BME280;22678;52.052;4.242;2022-10-16T03:19:37;100921.16;;;13.70;83.59
36692;BME280;22678;52.052;4.242;2022-10-16T03:22:03;100897.69;;;13.53;83.76
36692;BME280;22678;52.052;4.242;2022-10-16T03:24:28;100933.41;;;13.74;83.68
36692;BME280;22678;52.052;4.242;2022-10-16T03:26:53;100918.59;;;13.65;83.84
36692;BME280;22678;52.052;4.242;2022-10-16T03:29:19;100935.22;;;13.70;84.03
36692;BME280;22678;52.052;4.242;2022-10-16T03:31:44;100946.59;;;13.75;83.89
36692;BME280;22678;52.052;4.242;2022-10-16T03:34:09;100948.25;;;13.81;83.94
36692;BME280;22678;52.052;4.242;2022-10-16T03:36:35;100944.72;;;13.80;83.91
36692;BME280;22678;52.052;4.242;2022-10-16T03:39:00;100955.16;;;13.87;84.00
36692;BME280;22678;52.052;4.242;2022-10-16T03:41:25;100969.22;;;13.89;83.86
36692;BME280;22678;52.052;4.242;2022-10-16T03:43:51;100952.59;;;13.82;83.91
36692;BME280;22678;52.052;4.242;2022-10-16T03:46:16;100958.78;;;13.82;83.71
36692;BME280;22678;52.052;4.242;2022-10-16T03:48:41;100974.44;;;13.92;83.53
36692;BME280;22678;52.052;4.242;2022-10-16T03:51:06;100970.94;;;13.90;83.52
36692;BME280;22678;52.052;4.242;2022-10-16T03:53:32;100962.19;;;13.88;83.41
36692;BME280;22678;52.052;4.242;2022-10-16T03:55:57;100981.34;;;13.99;83.42
36692;BME280;22678;52.052;4.242;2022-10-16T03:58:23;100964.88;;;13.86;83.27
36692;BME280;22678;52.052;4.242;2022-10-16T04:00:49;100982.31;;;13.95;83.14
36692;BME280;22678;52.052;4.242;2022-10-16T04:03:14;100956.97;;;13.84;83.30
36692;BME280;22678;52.052;4.242;2022-10-16T04:05:40;100976.94;;;13.99;83.28
36692;BME280;22678;52.052;4.242;2022-10-16T04:08:05;100950.88;;;13.81;83.39
36692;BME280;22678;52.052;4.242;2022-10-16T04:10:31;100980.50;;;13.97;83.59
36692;BME280;22678;52.052;4.242;2022-10-16T04:12:56;100982.25;;;13.98;83.56
36692;BME280;22678;52.052;4.242;2022-10-16T04:15:23;100977.97;;;13.91;83.72
36692;BME280;22678;52.052;4.242;2022-10-16T04:17:48;100952.84;;;13.70;83.72
36692;BME280;22678;52.052;4.242;2022-10-16T04:20:14;100976.34;;;13.83;83.77
36692;BME280;22678;52.052;4.242;2022-10-16T04:22:39;100995.63;;;13.90;83.98
36692;BME280;22678;52.052;4.242;2022-10-16T04:25:05;100986.06;;;13.83;83.83
36692;BME280;22678;52.052;4.242;2022-10-16T04:27:30;101006.25;;;13.89;84.11
36692;BME280;22678;52.052;4.242;2022-10-16T04:29:57;100995.03;;;13.76;84.10
36692;BME280;22678;52.052;4.242;2022-10-16T04:32:22;101022.03;;;13.92;83.76
36692;BME280;22678;52.052;4.242;2022-10-16T04:34:47;100996.88;;;13.72;84.41
36692;BME280;22678;52.052;4.242;2022-10-16T04:37:13;101006.38;;;13.79;84.52
36692;BME280;22678;52.052;4.242;2022-10-16T04:39:38;101016.09;;;13.79;84.61
36692;BME280;22678;52.052;4.242;2022-10-16T04:42:03;101039.75;;;13.87;84.92
36692;BME280;22678;52.052;4.242;2022-10-16T04:44:29;101034.56;;;13.80;85.09
36692;BME280;22678;52.052;4.242;2022-10-16T04:46:54;101024.13;;;13.74;85.11
36692;BME280;22678;52.052;4.242;2022-10-16T04:49:19;101022.53;;;13.64;85.68
36692;BME280;22678;52.052;4.242;2022-10-16T04:51:45;101033.06;;;13.67;85.96
36692;BME280;22678;52.052;4.242;2022-10-16T04:54:10;101017.31;;;13.61;86.31
36692;BME280;22678;52.052;4.242;2022-10-16T04:56:36;101035.72;;;13.65;86.62
36692;BME280;22678;52.052;4.242;2022-10-16T04:59:09;101043.63;;;13.67;87.02
36692;BME280;22678;52.052;4.242;2022-10-16T05:01:34;101057.91;;;13.57;87.26
36692;BME280;22678;52.052;4.242;2022-10-16T05:04:00;101075.41;;;13.64;87.91
36692;BME280;22678;52.052;4.242;2022-10-16T05:06:25;101076.31;;;13.61;88.44
36692;BME280;22678;52.052;4.242;2022-10-16T05:08:51;101058.81;;;13.54;88.70
36692;BME280;22678;52.052;4.242;2022-10-16T05:11:16;101073.78;;;13.55;89.13
36692;BME280;22678;52.052;4.242;2022-10-16T05:13:41;101051.13;;;13.42;89.52
36692;BME280;22678;52.052;4.242;2022-10-16T05:16:06;101086.13;;;13.55;90.03
36692;BME280;22678;52.052;4.242;2022-10-16T05:18:32;101058.25;;;13.35;89.99
36692;BME280;22678;52.052;4.242;2022-10-16T05:20:57;101062.66;;;13.35;90.34
36692;BME280;22678;52.052;4.242;2022-10-16T05:23:22;101093.22;;;13.51;90.88
36692;BME280;22678;52.052;4.242;2022-10-16T05:25:55;101095.09;;;13.44;91.32
36692;BME280;22678;52.052;4.242;2022-10-16T05:28:26;101088.03;;;13.46;91.57
36692;BME280;22678;52.052;4.242;2022-10-16T05:30:52;101105.63;;;13.47;91.98
36692;BME280;22678;52.052;4.242;2022-10-16T05:33:19;101108.31;;;13.44;92.44
36692;BME280;22678;52.052;4.242;2022-10-16T05:35:45;101104.78;;;13.44;92.73
36692;BME280;22678;52.052;4.242;2022-10-16T05:38:10;101097.88;;;13.35;92.91
36692;BME280;22678;52.052;4.242;2022-10-16T05:40:35;101099.53;;;13.41;93.37
36692;BME280;22678;52.052;4.242;2022-10-16T05:43:01;101095.25;;;13.32;93.52
36692;BME280;22678;52.052;4.242;2022-10-16T05:45:26;101102.28;;;13.33;93.94
36692;BME280;22678;52.052;4.242;2022-10-16T05:47:51;101096.16;;;13.34;94.06
36692;BME280;22678;52.052;4.242;2022-10-16T05:50:17;101067.34;;;13.15;94.25
36692;BME280;22678;52.052;4.242;2022-10-16T05:52:42;101086.69;;;13.18;94.54
36692;BME280;22678;52.052;4.242;2022-10-16T05:55:07;101111.16;;;13.29;94.92
36692;BME280;22678;52.052;4.242;2022-10-16T05:57:33;101121.72;;;13.29;95.11
36692;BME280;22678;52.052;4.242;2022-10-16T05:59:58;101088.50;;;13.12;95.01
36692;BME280;22678;52.052;4.242;2022-10-16T06:02:23;101119.03;;;13.30;95.26
36692;BME280;22678;52.052;4.242;2022-10-16T06:04:49;101096.28;;;13.22;95.30
36692;BME280;22678;52.052;4.242;2022-10-16T06:07:14;101094.59;;;13.16;95.52
36692;BME280;22678;52.052;4.242;2022-10-16T06:09:40;101086.72;;;13.14;95.91
36692;BME280;22678;52.052;4.242;2022-10-16T06:12:05;101118.28;;;13.24;95.72
36692;BME280;22678;52.052;4.242;2022-10-16T06:14:30;101127.03;;;13.26;95.74
36692;BME280;22678;52.052;4.242;2022-10-16T06:16:56;101128.84;;;13.24;95.63
36692;BME280;22678;52.052;4.242;2022-10-16T06:19:21;101096.56;;;13.03;95.80
36692;BME280;22678;52.052;4.242;2022-10-16T06:21:47;101130.72;;;13.15;95.77
36692;BME280;22678;52.052;4.242;2022-10-16T06:24:13;101138.56;;;13.20;95.78
36692;BME280;22678;52.052;4.242;2022-10-16T06:26:38;101132.50;;;13.13;95.99
36692;BME280;22678;52.052;4.242;2022-10-16T06:29:03;101119.41;;;13.04;95.88
36692;BME280;22678;52.052;4.242;2022-10-16T06:31:29;101122.88;;;13.09;96.03
36692;BME280;22678;52.052;4.242;2022-10-16T06:33:57;101105.44;;;12.97;96.06
36692;BME280;22678;52.052;4.242;2022-10-16T06:36:23;101127.31;;;13.07;96.09
36692;BME280;22678;52.052;4.242;2022-10-16T06:38:49;101150.88;;;13.21;96.30
36692;BME280;22678;52.052;4.242;2022-10-16T06:41:17;101141.25;;;13.17;96.27
36692;BME280;22678;52.052;4.242;2022-10-16T06:43:43;101156.97;;;13.25;96.28
36692;BME280;22678;52.052;4.242;2022-10-16T06:46:13;101143.91;;;13.15;96.39
36692;BME280;22678;52.052;4.242;2022-10-16T06:48:39;101171.97;;;13.24;96.22
36692;BME280;22678;52.052;4.242;2022-10-16T06:53:32;101153.69;;;13.10;96.14
36692;BME280;22678;52.052;4.242;2022-10-16T06:56:05;101179.94;;;13.21;96.44
36692;BME280;22678;52.052;4.242;2022-10-16T06:58:31;101155.53;;;13.02;96.31
36692;BME280;22678;52.052;4.242;2022-10-16T07:00:56;101177.38;;;13.15;96.45
36692;BME280;22678;52.052;4.242;2022-10-16T07:03:22;101196.75;;;13.14;96.36
36692;BME280;22678;52.052;4.242;2022-10-16T07:05:47;101185.38;;;13.10;96.60
36692;BME280;22678;52.052;4.242;2022-10-16T07:08:12;101218.69;;;13.21;96.65
36692;BME280;22678;52.052;4.242;2022-10-16T07:10:38;101203.75;;;13.18;96.83
36692;BME280;22678;52.052;4.242;2022-10-16T07:13:03;101189.69;;;13.14;96.72
36692;BME280;22678;52.052;4.242;2022-10-16T07:15:28;101211.44;;;13.35;96.90
36692;BME280;22678;52.052;4.242;2022-10-16T07:17:54;101227.16;;;13.47;96.75
36692;BME280;22678;52.052;4.242;2022-10-16T07:20:19;101221.88;;;13.47;96.46
36692;BME280;22678;52.052;4.242;2022-10-16T07:22:44;101210.44;;;13.44;96.26
36692;BME280;22678;52.052;4.242;2022-10-16T07:25:10;101253.34;;;13.63;96.44
36692;BME280;22678;52.052;4.242;2022-10-16T07:27:36;101230.56;;;13.54;96.33
36692;BME280;22678;52.052;4.242;2022-10-16T07:30:02;101259.41;;;13.71;96.41
36692;BME280;22678;52.052;4.242;2022-10-16T07:32:27;101269.03;;;13.75;96.01
36692;BME280;22678;52.052;4.242;2022-10-16T07:34:53;101269.94;;;13.74;95.79
36692;BME280;22678;52.052;4.242;2022-10-16T07:37:18;101241.97;;;13.58;95.99
36692;BME280;22678;52.052;4.242;2022-10-16T07:39:44;101209.59;;;13.43;96.04
36692;BME280;22678;52.052;4.242;2022-10-16T07:42:09;101279.41;;;13.89;95.99
36692;BME280;22678;52.052;4.242;2022-10-16T07:44:35;101283.75;;;13.93;95.71
36692;BME280;22678;52.052;4.242;2022-10-16T07:47:01;101296.91;;;13.98;95.56
36692;BME280;22678;52.052;4.242;2022-10-16T07:49:26;101268.78;;;13.91;95.69
36692;BME280;22678;52.052;4.242;2022-10-16T07:51:52;101266.97;;;13.96;95.86
36692;BME280;22678;52.052;4.242;2022-10-16T07:54:17;101273.75;;;14.12;96.01
36692;BME280;22678;52.052;4.242;2022-10-16T07:56:42;101295.34;;;14.41;95.60
36692;BME280;22678;52.052;4.242;2022-10-16T07:59:08;101310.78;;;14.68;94.93
36692;BME280;22678;52.052;4.242;2022-10-16T08:01:33;101314.91;;;14.83;94.09
36692;BME280;22678;52.052;4.242;2022-10-16T08:03:58;101280.00;;;14.60;93.31
36692;BME280;22678;52.052;4.242;2022-10-16T08:06:24;101314.31;;;14.67;93.08
36692;BME280;22678;52.052;4.242;2022-10-16T08:08:49;101323.22;;;14.60;92.97
36692;BME280;22678;52.052;4.242;2022-10-16T08:11:14;101324.19;;;14.54;93.31
36692;BME280;22678;52.052;4.242;2022-10-16T08:13:40;101333.72;;;14.69;93.05
36692;BME280;22678;52.052;4.242;2022-10-16T08:16:06;101331.09;;;14.65;92.87
36692;BME280;22678;52.052;4.242;2022-10-16T08:18:34;101329.28;;;14.70;92.87
36692;BME280;22678;52.052;4.242;2022-10-16T08:21:00;101330.81;;;14.83;92.52
36692;BME280;22678;52.052;4.242;2022-10-16T08:23:27;101347.41;;;14.93;92.11
36692;BME280;22678;52.052;4.242;2022-10-16T08:25:53;101363.78;;;15.15;91.72
36692;BME280;22678;52.052;4.242;2022-10-16T08:28:19;101341.81;;;15.09;90.80
36692;BME280;22678;52.052;4.242;2022-10-16T08:30:44;101356.44;;;15.30;90.58
36692;BME280;22678;52.052;4.242;2022-10-16T08:33:10;101276.03;;;14.85;90.08
36692;BME280;22678;52.052;4.242;2022-10-16T08:35:35;101354.56;;;15.35;89.60
36692;BME280;22678;52.052;4.242;2022-10-16T08:38:03;101373.72;;;15.49;89.65
36692;BME280;22678;52.052;4.242;2022-10-16T08:40:30;101390.28;;;15.59;88.89
36692;BME280;22678;52.052;4.242;2022-10-16T08:43:25;101397.19;;;15.66;88.80
36692;BME280;22678;52.052;4.242;2022-10-16T08:48:43;101405.25;;;15.62;87.78
36692;BME280;22678;52.052;4.242;2022-10-16T08:51:12;101375.47;;;15.50;87.94
36692;BME280;22678;52.052;4.242;2022-10-16T08:53:57;101368.31;;;15.54;87.64
36692;BME280;22678;52.052;4.242;2022-10-16T08:56:23;101401.38;;;15.81;86.96
36692;BME280;22678;52.052;4.242;2022-10-16T08:58:49;101407.25;;;15.94;86.88
36692;BME280;22678;52.052;4.242;2022-10-16T09:01:17;101410.34;;;16.15;86.52
36692;BME280;22678;52.052;4.242;2022-10-16T09:04:10;101421.50;;;16.31;85.60
36692;BME280;22678;52.052;4.242;2022-10-16T09:12:24;101428.63;;;16.66;83.59
36692;BME280;22678;52.052;4.242;2022-10-16T09:15:12;101430.28;;;16.72;82.75
36692;BME280;22678;52.052;4.242;2022-10-16T09:17:49;101425.84;;;16.71;81.88
36692;BME280;22678;52.052;4.242;2022-10-16T09:23:28;101411.84;;;16.66;81.43
36692;BME280;22678;52.052;4.242;2022-10-16T09:25:55;101421.25;;;16.79;81.05
36692;BME280;22678;52.052;4.242;2022-10-16T09:28:21;101420.34;;;16.80;80.95
36692;BME280;22678;52.052;4.242;2022-10-16T09:30:47;101437.59;;;16.99;79.88
36692;BME280;22678;52.052;4.242;2022-10-16T09:33:18;101444.44;;;17.08;78.77
36692;BME280;22678;52.052;4.242;2022-10-16T09:35:47;101424.91;;;17.11;77.85
36692;BME280;22678;52.052;4.242;2022-10-16T09:40:51;101426.53;;;17.15;76.43
36692;BME280;22678;52.052;4.242;2022-10-16T09:43:40;101433.53;;;17.19;75.88
36692;BME280;22678;52.052;4.242;2022-10-16T09:46:19;101443.78;;;17.34;75.96
36692;BME280;22678;52.052;4.242;2022-10-16T09:48:48;101448.25;;;17.32;74.87
36692;BME280;22678;52.052;4.242;2022-10-16T09:51:39;101415.00;;;17.16;75.09
36692;BME280;22678;52.052;4.242;2022-10-16T09:54:18;101447.34;;;17.33;74.25
36692;BME280;22678;52.052;4.242;2022-10-16T09:56:45;101447.34;;;17.33;72.85
36692;BME280;22678;52.052;4.242;2022-10-16T09:59:17;101436.75;;;17.32;72.47
36692;BME280;22678;52.052;4.242;2022-10-16T10:01:46;101450.50;;;17.48;72.11
36692;BME280;22678;52.052;4.242;2022-10-16T10:04:12;101432.88;;;17.44;71.55
36692;BME280;22678;52.052;4.242;2022-10-16T10:09:22;101457.53;;;17.49;67.97
36692;BME280;22678;52.052;4.242;2022-10-16T10:14:32;101448.66;;;17.50;66.75
36692;BME280;22678;52.052;4.242;2022-10-16T10:19:29;101458.69;;;17.40;66.70
36692;BME280;22678;52.052;4.242;2022-10-16T10:21:54;101430.59;;;17.30;66.36
36692;BME280;22678;52.052;4.242;2022-10-16T10:24:20;101462.53;;;17.61;66.18
36692;BME280;22678;52.052;4.242;2022-10-16T10:26:54;101455.06;;;17.76;66.03
36692;BME280;22678;52.052;4.242;2022-10-16T10:30:18;101479.00;;;18.07;65.21
36692;BME280;22678;52.052;4.242;2022-10-16T10:35:13;101491.13;;;18.17;63.63
36692;BME280;22678;52.052;4.242;2022-10-16T10:40:40;101492.84;;;18.20;63.29
36692;BME280;22678;52.052;4.242;2022-10-16T10:43:44;101470.88;;;18.12;61.29
36692;BME280;22678;52.052;4.242;2022-10-16T10:46:51;101502.91;;;18.38;61.10
36692;BME280;22678;52.052;4.242;2022-10-16T10:51:58;101514.13;;;18.50;61.27
36692;BME280;22678;52.052;4.242;2022-10-16T10:57:29;101505.25;;;18.49;59.67
36692;BME280;22678;52.052;4.242;2022-10-16T11:10:40;101493.41;;;18.60;57.33
36692;BME280;22678;52.052;4.242;2022-10-16T11:13:28;101512.75;;;18.65;58.04
36692;BME280;22678;52.052;4.242;2022-10-16T11:15:59;101535.38;;;18.80;56.79
36692;BME280;22678;52.052;4.242;2022-10-16T11:18:50;101528.13;;;18.86;56.90
36692;BME280;22678;52.052;4.242;2022-10-16T11:21:19;101526.31;;;18.87;56.10
36692;BME280;22678;52.052;4.242;2022-10-16T11:24:14;101543.84;;;18.94;55.57
36692;BME280;22678;52.052;4.242;2022-10-16T11:26:42;101531.63;;;18.87;54.74
36692;BME280;22678;52.052;4.242;2022-10-16T11:29:19;101542.75;;;19.01;54.80
36692;BME280;22678;52.052;4.242;2022-10-16T11:31:55;101524.84;;;19.05;54.67
36692;BME280;22678;52.052;4.242;2022-10-16T11:34:27;101528.88;;;19.17;55.03
36692;BME280;22678;52.052;4.242;2022-10-16T11:39:43;101535.03;;;19.46;55.78
36692;BME280;22678;52.052;4.242;2022-10-16T11:42:19;101540.66;;;19.63;55.86
36692;BME280;22678;52.052;4.242;2022-10-16T11:44:59;101538.63;;;19.71;55.85
36692;BME280;22678;52.052;4.242;2022-10-16T11:47:44;101553.19;;;19.88;55.60
36692;BME280;22678;52.052;4.242;2022-10-16T11:52:57;101562.94;;;20.12;55.05
36692;BME280;22678;52.052;4.242;2022-10-16T11:55:36;101559.59;;;20.07;52.92
36692;BME280;22678;52.052;4.242;2022-10-16T11:58:15;101549.25;;;19.98;52.95
36692;BME280;22678;52.052;4.242;2022-10-16T12:00:50;101564.88;;;20.09;52.60
36692;BME280;22678;52.052;4.242;2022-10-16T12:03:24;101561.28;;;20.10;52.03
36692;BME280;22678;52.052;4.242;2022-10-16T12:06:31;101564.94;;;20.07;51.74
36692;BME280;22678;52.052;4.242;2022-10-16T12:09:00;101568.50;;;20.06;51.12
36692;BME280;22678;52.052;4.242;2022-10-16T12:13:51;101553.81;;;19.94;51.54
36692;BME280;22678;52.052;4.242;2022-10-16T12:18:46;101567.53;;;20.09;49.86
36692;BME280;22678;52.052;4.242;2022-10-16T12:21:13;101562.50;;;20.01;50.22
36692;BME280;22678;52.052;4.242;2022-10-16T12:23:52;101565.28;;;19.98;50.13
36692;BME280;22678;52.052;4.242;2022-10-16T12:26:30;101570.59;;;19.98;49.71
36692;BME280;22678;52.052;4.242;2022-10-16T12:29:54;101564.66;;;19.90;49.85
36692;BME280;22678;52.052;4.242;2022-10-16T12:31:54;101546.41;;;19.77;49.66
36692;BME280;22678;52.052;4.242;2022-10-16T12:36:53;101562.72;;;19.68;50.44
36692;BME280;22678;52.052;4.242;2022-10-16T12:39:23;101582.13;;;19.73;50.90
36692;BME280;22678;52.052;4.242;2022-10-16T12:42:21;101569.09;;;19.64;51.32
36692;BME280;22678;52.052;4.242;2022-10-16T12:44:46;101549.13;;;19.49;51.38
36692;BME280;22678;52.052;4.242;2022-10-16T12:47:23;101547.56;;;19.43;51.12
36692;BME280;22678;52.052;4.242;2022-10-16T12:49:52;101569.66;;;19.47;50.86
36692;BME280;22678;52.052;4.242;2022-10-16T12:52:44;101567.09;;;19.44;51.44
36692;BME280;22678;52.052;4.242;2022-10-16T12:55:16;101567.06;;;19.46;51.43
36692;BME280;22678;52.052;4.242;2022-10-16T12:58:27;101590.75;;;19.55;50.91
36692;BME280;22678;52.052;4.242;2022-10-16T13:00:58;101581.06;;;19.52;50.99
36692;BME280;22678;52.052;4.242;2022-10-16T13:03:31;101596.13;;;19.53;50.84
36692;BME280;22678;52.052;4.242;2022-10-16T13:06:13;101586.47;;;19.51;51.00
36692;BME280;22678;52.052;4.242;2022-10-16T13:11:49;101571.72;;;19.39;50.36
36692;BME280;22678;52.052;4.242;2022-10-16T13:17:11;101585.09;;;19.37;50.45
36692;BME280;22678;52.052;4.242;2022-10-16T13:20:02;101608.59;;;19.53;49.55
36692;BME280;22678;52.052;4.242;2022-10-16T13:30:24;101617.63;;;19.49;49.71
36692;BME280;22678;52.052;4.242;2022-10-16T13:33:00;101620.28;;;19.49;50.00
36692;BME280;22678;52.052;4.242;2022-10-16T13:35:28;101617.63;;;19.49;49.74
36692;BME280;22678;52.052;4.242;2022-10-16T13:38:22;101618.47;;;19.51;48.96
36692;BME280;22678;52.052;4.242;2022-10-16T13:41:05;101614.38;;;19.39;48.75
36692;BME280;22678;52.052;4.242;2022-10-16T13:43:34;101611.97;;;19.31;49.05
36692;BME280;22678;52.052;4.242;2022-10-16T13:46:15;101616.25;;;19.37;49.82
36692;BME280;22678;52.052;4.242;2022-10-16T13:48:41;101598.63;;;19.31;50.17
36692;BME280;22678;52.052;4.242;2022-10-16T13:51:18;101620.41;;;19.46;50.82
36692;BME280;22678;52.052;4.242;2022-10-16T13:53:44;101609.69;;;19.47;50.63
36692;BME280;22678;52.052;4.242;2022-10-16T13:56:15;101593.84;;;19.42;50.41
36692;BME280;22678;52.052;4.242;2022-10-16T13:58:41;101598.19;;;19.45;50.79
36692;BME280;22678;52.052;4.242;2022-10-16T14:01:34;101610.66;;;19.44;50.94
36692;BME280;22678;52.052;4.242;2022-10-16T14:04:04;101572.91;;;19.30;51.12
36692;BME280;22678;52.052;4.242;2022-10-16T14:06:30;101600.81;;;19.47;51.26
36692;BME280;22678;52.052;4.242;2022-10-16T14:09:05;101600.72;;;19.50;51.28
36692;BME280;22678;52.052;4.242;2022-10-16T14:11:31;101599.06;;;19.46;51.44
36692;BME280;22678;52.052;4.242;2022-10-16T14:13:57;101609.63;;;19.49;51.25
36692;BME280;22678;52.052;4.242;2022-10-16T14:16:26;101598.44;;;19.37;51.24
36692;BME280;22678;52.052;4.242;2022-10-16T14:18:57;101590.63;;;19.31;51.69
36692;BME280;22678;52.052;4.242;2022-10-16T14:21:23;101611.63;;;19.42;52.13
36692;BME280;22678;52.052;4.242;2022-10-16T14:23:49;101594.25;;;19.29;52.36